Home   Weather   Germany   Langen   Past weeks
Flag for Germany

Past Weather in Langen, Hesse, Germany — Yesterday and Last 2 Weeks

Currently: 55 °F. Passing clouds. (Weather station: Frankfurt-M-Flughafen Airport, Germany). See more current weather

Past Weather in Langen — Graph

°F

Langen Temperature Yesterday

Maximum temperature yesterday: 72 °F (at 2:50 pm)
Minimum temperature yesterday: 50 °F (at 5:20 am)
Average temperature yesterday: 61 °F

High & Low Weather Summary for the Past Weeks

 TemperatureHumidityPressure
High81 °F (Apr 8, 4:20 pm)100% (Mar 30, 11:50 pm)30.54 "Hg (Mar 30, 11:50 pm)
Low34 °F (Apr 11, 5:20 am)26% (Apr 6, 5:20 pm)29.30 "Hg (Apr 1, 5:50 am)
Average57 °F70%29.98 "Hg
* Reported Mar 30 11:20 pm — Apr 15 12:20 am, Langen. Weather by CustomWeather, © 2024

Note: Actual official high and low records may vary slightly from our data, if they occured in-between our weather recording intervals... More about our weather records

Langen Weather History for the Previous 24 Hours

Scroll right to see more
 ConditionsComfort  
Time TempWeatherWind HumidityBarometerVisibility
12:20 am
Mon, Apr 15
55 °FClear.3 mph72%29.98 "Hg10 mi
11:20 pm
Sun, Apr 14
57 °FPassing clouds.3 mph63%30.01 "HgN/A
10:50 pm59 °FPassing clouds.3 mph59%30.01 "HgN/A
10:20 pm61 °FClear.6 mph59%30.01 "Hg10 mi
9:50 pm61 °FPassing clouds.5 mph59%30.04 "HgN/A
9:20 pm63 °FClear.8 mph56%30.04 "Hg10 mi
8:50 pm63 °FPassing clouds.9 mph56%30.04 "HgN/A
8:20 pm63 °FPassing clouds.9 mph59%30.04 "HgN/A
7:50 pm64 °FSunny.9 mph56%30.04 "Hg10 mi
7:20 pm66 °FSunny.9 mph52%30.04 "Hg10 mi
6:50 pm68 °FSunny.10 mph53%30.07 "Hg10 mi
6:20 pm72 °FSunny.13 mph41%30.07 "Hg10 mi
5:50 pm72 °FPassing clouds.13 mph44%30.07 "HgN/A
5:20 pm72 °FSunny.12 mph41%30.07 "Hg10 mi
4:50 pm72 °FPassing clouds.9 mph41%30.09 "HgN/A
4:20 pm72 °FPassing clouds.10 mph44%30.09 "HgN/A
3:20 pm72 °FSunny.9 mph41%30.12 "Hg10 mi
2:50 pm72 °FPassing clouds.8 mph44%30.12 "HgN/A
2:20 pm70 °FSunny.12 mph46%30.15 "Hg10 mi
1:50 pm70 °FSunny.6 mph46%30.15 "Hg10 mi
1:20 pm68 °FPassing clouds.9 mph46%30.15 "HgN/A
12:50 pm68 °FPassing clouds.9 mph49%30.15 "HgN/A
12:20 pm68 °FPassing clouds.10 mph49%30.18 "HgN/A
11:50 am66 °FPassing clouds.8 mph49%30.18 "HgN/A
11:20 am66 °FPassing clouds.8 mph52%30.18 "HgN/A
10:50 am64 °FPassing clouds.7 mph52%30.18 "HgN/A
10:20 am64 °FPassing clouds.8 mph52%30.18 "HgN/A
9:50 am63 °FPassing clouds.7 mph56%30.18 "HgN/A
9:20 am63 °FSunny.7 mph56%30.18 "Hg10 mi
8:50 am61 °FSunny.7 mph68%30.15 "Hg10 mi
8:20 am59 °FSunny.1 mph77%30.15 "Hg10 mi
7:50 am54 °FSunny.3 mph94%30.15 "Hg10 mi
7:20 am50 °FSunny.2 mph94%30.15 "Hg10 mi
6:50 am54 °FSunny.2 mph88%30.12 "Hg10 mi
6:20 am50 °FClear.3 mph94%30.12 "Hg10 mi
5:50 am50 °FClear.3 mph100%30.12 "Hg10 mi
5:20 am50 °FClear.2 mph100%30.12 "Hg10 mi
4:50 am52 °FClear.1 mph94%30.12 "Hg10 mi
3:50 am52 °FClear.2 mph94%30.12 "Hg10 mi
3:20 am52 °FClear.2 mph94%30.12 "Hg10 mi
2:50 am54 °FClear.1 mph94%30.12 "Hg10 mi
2:20 am54 °FClear.2 mph94%30.15 "Hg10 mi
1:50 am54 °FClear.3 mph94%30.15 "Hg10 mi
1:20 am54 °FPassing clouds.3 mph94%30.15 "HgN/A
Weather by CustomWeather, © 2024

See weather overview